Terminal Aerodrome Forecast
Issued by NWS Mt. Holly, NJ

Home | Current Version | Previous Version | Text Only | Print | Product List | Glossary On
Versions: 1 2 3 4 5 6 7 8 9 10 11 12 13 14 15 16 17 18 19 20 21 22 23 24
000
FTUS41 KPHI 182008 AAA
TAFACY
TAF AMD
KACY 182008Z 1820/1918 18012G20KT P6SM SCT015 BKN035
     FM182200 20008KT 5SM -SHRA BKN025 OVC050
      TEMPO 1822/1902 28015G30KT 2SM TSRA BKN025CB
     FM190200 20005KT P6SM BKN050 BKN090
      TEMPO 1902/1904 3SM SHRA BKN025
     FM190500 23005KT 3SM BR BKN025
     FM190700 VRB03KT 2SM BR OVC008
     FM191300 30005KT 4SM BR SCT008
     FM191500 28008KT P6SM FEW250=

USA.gov is the U.S. government's official web portal to all federal, state and local government web resources and services.